Grantsdale, Montana
Current Conditions -  °F | °C
As of 1:53 AM on Saturday 25 Oct 2014 (Local Time) from KMSO Reporting Station
Overcast Overcast  
Wind Chill: 41°   Ceiling: 2800
Heat Index: 45°   Visibility: 10mi
Dew Point: 43°   Wind: 7mph
Humidity: 93%   Direction: 130°SE
Pressure: 30.04"   Gusts: NA
Location:  46.2°N, 114.13°W
Report Text: KMSO 250753Z AUTO 13006KT 10SM OVC028 07/06 A3004 RMK AO2 SLP179 T00720061
Loading
Personal Weather Stations






























Interactive Weather Map
Tropical Storm Tracking
New forecast layout! Learn more

10-Day Weather Forecast

Advertisements
Track Severe Weather on mobile